createdAt,value
2023-05-12T00:01:14.242Z,860.78
2023-05-12T00:03:41.220Z,880.15
2023-05-12T00:06:07.957Z,871.42
2023-05-12T00:08:34.369Z,886.60
2023-05-12T00:11:01.395Z,894.38
2023-05-12T00:13:28.961Z,876.03
2023-05-12T00:15:58.584Z,880.60
2023-05-12T00:18:26.276Z,876.90
2023-05-12T00:20:55.538Z,908.83
2023-05-12T00:23:22.531Z,899.38
2023-05-12T00:25:49.598Z,893.45
2023-05-12T00:28:16.733Z,885.33
2023-05-12T00:30:43.103Z,884.65
2023-05-12T00:33:09.557Z,898.33
2023-05-12T00:35:35.870Z,898.92
2023-05-12T00:38:02.202Z,897.40
2023-05-12T00:40:28.700Z,902.88
2023-05-12T00:42:55.019Z,883.05
2023-05-12T00:45:21.837Z,887.15
2023-05-12T00:47:49.388Z,892.92
2023-05-12T00:50:17.367Z,873.20
2023-05-12T00:52:44.065Z,878.25
2023-05-12T00:55:10.568Z,883.05
2023-05-12T00:57:37.128Z,876.65
2023-05-12T01:00:04.921Z,896.85
2023-05-12T01:02:31.418Z,888.75
2023-05-12T01:04:58.127Z,883.80
2023-05-12T01:07:26.046Z,881.08
2023-05-12T01:09:56.512Z,891.58
2023-05-12T01:12:23.661Z,898.40
2023-05-12T01:14:52.173Z,885.50
2023-05-12T01:17:33.352Z,888.95
2023-05-12T01:20:02.184Z,885.40
2023-05-12T01:22:31.512Z,885.97
2023-05-12T01:25:01.713Z,869.00
2023-05-12T01:27:29.275Z,873.35
2023-05-12T01:30:01.650Z,866.88
2023-05-12T01:32:28.174Z,864.45
2023-05-12T01:34:54.557Z,862.83
2023-05-12T01:37:21.033Z,877.00
2023-05-12T01:39:47.619Z,879.25
2023-05-12T01:42:14.010Z,871.50
2023-05-12T01:44:40.765Z,880.03
2023-05-12T01:47:09.842Z,892.53
2023-05-12T01:49:36.399Z,882.03
2023-05-12T01:52:02.955Z,864.75
2023-05-12T01:54:29.633Z,871.15
2023-05-12T01:56:56.108Z,846.72
2023-05-12T01:59:22.604Z,905.53
2023-05-12T02:01:49.111Z,884.42
2023-05-12T02:04:15.524Z,870.97
2023-05-12T02:06:41.904Z,865.63
2023-05-12T02:09:08.252Z,867.10
2023-05-12T02:11:34.598Z,866.97
2023-05-12T02:14:00.970Z,868.45
2023-05-12T02:16:27.356Z,864.28
2023-05-12T02:18:53.885Z,865.33
2023-05-12T02:21:20.334Z,868.58
2023-05-12T02:23:46.912Z,875.75
2023-05-12T02:26:13.517Z,871.08
2023-05-12T02:28:39.837Z,857.53
2023-05-12T02:31:06.262Z,841.63
2023-05-12T02:33:32.624Z,849.53
2023-05-12T02:35:59.096Z,839.13
2023-05-12T02:38:25.695Z,838.20
2023-05-12T02:40:52.109Z,833.92
2023-05-12T02:43:18.519Z,843.05
2023-05-12T02:45:44.888Z,857.58
2023-05-12T02:48:11.392Z,852.53
2023-05-12T02:50:37.739Z,844.72
2023-05-12T02:53:04.477Z,847.17
2023-05-12T02:55:30.853Z,846.60
2023-05-12T02:57:57.284Z,838.65
2023-05-12T03:00:23.716Z,828.42
2023-05-12T03:02:52.380Z,839.97
2023-05-12T03:05:18.907Z,835.88
2023-05-12T03:07:45.447Z,815.40
2023-05-12T03:10:11.805Z,831.00
2023-05-12T03:12:38.132Z,812.47
2023-05-12T03:15:04.864Z,815.78
2023-05-12T03:17:31.395Z,841.92
2023-05-12T03:19:57.783Z,820.95
2023-05-12T03:22:24.278Z,839.92
2023-05-12T03:24:51.671Z,829.47
2023-05-12T03:27:18.078Z,834.25
2023-05-12T03:29:44.443Z,819.13
2023-05-12T03:32:11.967Z,844.30
2023-05-12T03:34:38.293Z,836.63
2023-05-12T03:37:04.839Z,827.67
2023-05-12T03:39:31.187Z,815.95
2023-05-12T03:41:57.505Z,825.90
2023-05-12T03:44:23.928Z,835.53
2023-05-12T03:46:50.448Z,833.33
2023-05-12T03:49:17.092Z,834.75
2023-05-12T03:51:43.431Z,824.13
2023-05-12T03:54:09.812Z,820.20
2023-05-12T03:56:36.426Z,813.95
2023-05-12T03:59:03.986Z,818.10
2023-05-12T04:01:30.490Z,835.13
2023-05-12T04:03:56.962Z,842.15
2023-05-12T04:06:23.358Z,824.75
2023-05-12T04:08:49.662Z,821.90
2023-05-12T04:11:16.009Z,820.80
2023-05-12T04:13:42.332Z,792.85
2023-05-12T04:16:08.727Z,813.30
2023-05-12T04:18:36.592Z,817.70
2023-05-12T04:21:03.269Z,817.58
2023-05-12T04:23:29.600Z,798.25
2023-05-12T04:25:56.387Z,815.45
2023-05-12T04:28:22.876Z,826.97
2023-05-12T04:30:49.277Z,835.67
2023-05-12T04:33:15.669Z,854.70
2023-05-12T04:35:42.020Z,828.67
2023-05-12T04:38:08.428Z,867.15
2023-05-12T04:40:35.203Z,845.60
2023-05-12T04:43:01.725Z,877.50
2023-05-12T04:45:28.128Z,850.10
2023-05-12T04:47:54.512Z,882.55
2023-05-12T04:50:21.134Z,866.90
2023-05-12T04:52:47.518Z,854.45
2023-05-12T04:55:13.894Z,866.58
2023-05-12T04:57:41.356Z,843.20
2023-05-12T05:00:09.038Z,851.88
2023-05-12T05:02:35.716Z,860.55
2023-05-12T05:05:02.228Z,841.47
2023-05-12T05:07:28.606Z,836.72
2023-05-12T05:09:55.001Z,840.95
2023-05-12T05:12:21.384Z,837.72
2023-05-12T05:14:48.038Z,834.88
2023-05-12T05:17:14.688Z,854.45
2023-05-12T05:19:54.836Z,849.72
2023-05-12T05:22:25.074Z,829.53
2023-05-12T05:24:51.813Z,811.13
2023-05-12T05:27:18.316Z,821.15
2023-05-12T05:29:44.670Z,815.58
2023-05-12T05:32:11.297Z,824.53
2023-05-12T05:34:37.847Z,807.55
2023-05-12T05:37:04.375Z,809.67
2023-05-12T05:39:30.922Z,829.50
2023-05-12T05:41:57.951Z,827.25
2023-05-12T05:44:25.094Z,823.78
2023-05-12T05:46:51.811Z,830.83
2023-05-12T05:49:18.529Z,808.65
2023-05-12T05:51:44.903Z,828.58
2023-05-12T05:54:11.935Z,831.22
2023-05-12T05:56:38.274Z,834.78
2023-05-12T05:59:05.087Z,827.20
2023-05-12T06:01:32.376Z,821.63
2023-05-12T06:03:59.165Z,801.17
2023-05-12T06:06:25.692Z,819.95
2023-05-12T06:08:52.054Z,804.13
2023-05-12T06:11:18.413Z,819.15
2023-05-12T06:13:44.733Z,790.33
2023-05-12T06:16:11.287Z,793.35
2023-05-12T06:18:38.208Z,795.53
2023-05-12T06:21:05.465Z,774.53
2023-05-12T06:23:31.963Z,777.70
2023-05-12T06:25:58.380Z,788.40
2023-05-12T06:28:24.759Z,784.47
2023-05-12T06:30:51.198Z,764.67
2023-05-12T06:33:17.591Z,798.90
2023-05-12T06:35:43.973Z,773.85
2023-05-12T06:38:10.456Z,775.83
2023-05-12T06:40:36.868Z,781.67
2023-05-12T06:43:03.223Z,760.13
2023-05-12T06:45:30.131Z,764.45
2023-05-12T06:47:57.570Z,753.38
2023-05-12T06:50:24.051Z,764.20
2023-05-12T06:52:50.760Z,745.47
2023-05-12T06:55:19.965Z,709.05
2023-05-12T06:57:46.652Z,715.28
2023-05-12T07:00:13.805Z,657.80
2023-05-12T07:02:40.291Z,675.55
2023-05-12T07:05:06.878Z,702.30
2023-05-12T07:07:33.309Z,674.85
2023-05-12T07:09:59.644Z,659.28
2023-05-12T07:12:26.070Z,660.50
2023-05-12T07:14:52.422Z,663.17
2023-05-12T07:17:18.769Z,656.47
2023-05-12T07:19:45.097Z,645.63
2023-05-12T07:22:11.478Z,659.85
2023-05-12T07:24:38.496Z,619.53
2023-05-12T07:27:05.703Z,566.00
2023-05-12T07:29:32.070Z,630.05
2023-05-12T07:31:58.628Z,615.17
2023-05-12T07:34:25.054Z,530.45
2023-05-12T07:36:51.413Z,560.00
2023-05-12T07:39:23.580Z,573.70
2023-05-12T07:41:50.883Z,533.38
2023-05-12T07:44:17.295Z,597.22
2023-05-12T07:46:43.849Z,621.80
2023-05-12T07:49:10.264Z,528.72
2023-05-12T07:51:36.769Z,589.00
2023-05-12T07:54:03.151Z,530.28
2023-05-12T07:56:29.482Z,455.42
2023-05-12T07:58:56.174Z,470.70
2023-05-12T08:01:22.722Z,454.73
2023-05-12T08:03:51.779Z,458.73
2023-05-12T08:06:18.673Z,473.02
2023-05-12T08:08:45.218Z,499.15
2023-05-12T08:11:12.563Z,445.67
2023-05-12T08:13:39.634Z,310.52
2023-05-12T08:16:06.212Z,341.02
2023-05-12T08:18:32.662Z,347.40
2023-05-12T08:20:59.025Z,319.63
2023-05-12T08:23:25.613Z,451.85
2023-05-12T08:25:54.415Z,451.45
2023-05-12T08:28:21.176Z,426.80
2023-05-12T08:30:47.682Z,329.55
2023-05-12T08:33:16.714Z,369.23
2023-05-12T08:35:45.254Z,274.75
2023-05-12T08:38:14.728Z,390.05
2023-05-12T08:40:55.825Z,405.92
2023-05-12T08:43:31.531Z,391.45
2023-05-12T08:45:58.459Z,321.40
2023-05-12T08:48:32.075Z,136.57
2023-05-12T08:50:59.289Z,257.30
2023-05-12T08:53:27.828Z,205.00
2023-05-12T08:57:09.477Z,246.20
2023-05-12T08:58:42.857Z,156.27
2023-05-12T09:01:11.879Z,166.80
2023-05-12T09:03:38.955Z,174.55
2023-05-12T09:06:06.530Z,95.05
2023-05-12T09:08:34.779Z,129.50
2023-05-12T09:11:02.018Z,102.10
2023-05-12T09:13:38.447Z,66.78
2023-05-12T09:16:12.665Z,61.08
2023-05-12T09:18:52.770Z,52.50
2023-05-12T09:21:19.675Z,51.45
2023-05-12T09:23:57.249Z,49.08
2023-05-12T09:26:59.178Z,48.63
2023-05-12T09:29:31.677Z,48.20
2023-05-12T09:34:30.978Z,53.47
2023-05-12T09:36:59.935Z,51.72
2023-05-12T09:39:26.703Z,45.95
2023-05-12T09:41:53.826Z,35.63
2023-05-12T09:44:21.132Z,32.85
2023-05-12T09:46:48.556Z,33.78
2023-05-12T09:49:20.131Z,33.45
2023-05-12T09:51:46.835Z,28.00
2023-05-12T09:54:13.875Z,26.90
2023-05-12T09:56:40.827Z,28.00
2023-05-12T09:59:10.258Z,25.98
2023-05-12T10:01:37.081Z,25.02
2023-05-12T10:04:07.458Z,28.42
2023-05-12T10:06:40.749Z,27.13
2023-05-12T10:09:20.576Z,23.30
2023-05-12T10:11:47.759Z,24.23
2023-05-12T10:14:16.739Z,16.67
2023-05-12T10:16:46.178Z,14.05
2023-05-12T10:19:13.980Z,15.77
2023-05-12T10:21:43.501Z,15.57
2023-05-12T10:24:10.279Z,12.93
2023-05-12T10:26:37.538Z,13.25
2023-05-12T10:29:04.042Z,13.30
2023-05-12T10:31:30.736Z,11.10
2023-05-12T10:34:01.103Z,12.73
2023-05-12T10:36:27.841Z,13.45
2023-05-12T10:38:55.028Z,14.38
2023-05-12T10:41:32.210Z,17.27
2023-05-12T10:43:59.058Z,11.63
2023-05-12T10:46:27.128Z,17.20
2023-05-12T10:49:07.560Z,12.38
2023-05-12T10:51:46.020Z,15.57
2023-05-12T10:54:20.186Z,11.27
2023-05-12T10:56:47.426Z,9.02
2023-05-12T10:59:17.829Z,8.80
2023-05-12T11:01:59.236Z,7.72
2023-05-12T11:04:42.015Z,7.30
2023-05-12T11:07:14.262Z,7.90
2023-05-12T11:09:56.791Z,9.50
2023-05-12T11:12:33.795Z,9.93
2023-05-12T11:15:02.613Z,10.85
2023-05-12T11:17:29.426Z,11.57
2023-05-12T11:19:56.353Z,9.25
2023-05-12T11:22:23.718Z,9.77
2023-05-12T11:24:51.170Z,8.90
2023-05-12T11:27:19.413Z,10.18
2023-05-12T11:29:59.565Z,9.25
2023-05-12T11:32:26.485Z,8.50
2023-05-12T11:34:53.062Z,7.20
2023-05-12T11:37:21.158Z,9.63
2023-05-12T11:39:48.096Z,11.35
2023-05-12T11:42:16.302Z,10.07
2023-05-12T11:44:49.412Z,7.47
2023-05-12T11:47:19.650Z,7.88
2023-05-12T11:49:56.752Z,7.13
2023-05-12T11:52:24.692Z,7.13
2023-05-12T11:54:52.818Z,6.00
2023-05-12T11:57:27.592Z,7.10
2023-05-12T12:00:06.831Z,7.13
2023-05-12T12:02:37.336Z,7.30
2023-05-12T12:05:08.546Z,7.18
2023-05-12T12:07:36.638Z,7.70
2023-05-12T12:10:13.178Z,7.85
2023-05-12T12:12:43.347Z,7.13
2023-05-12T12:15:10.555Z,8.52
2023-05-12T12:17:37.223Z,6.60
2023-05-12T12:20:04.076Z,6.15
2023-05-12T12:22:34.104Z,7.82
2023-05-12T12:25:01.676Z,6.38
2023-05-12T12:27:28.192Z,5.57
2023-05-12T12:29:54.620Z,5.25
2023-05-12T12:32:21.089Z,9.13
2023-05-12T12:34:48.843Z,10.18
2023-05-12T12:37:15.566Z,9.65
2023-05-12T12:39:41.958Z,6.63
2023-05-12T12:42:08.723Z,7.13
2023-05-12T12:44:35.441Z,6.53
2023-05-12T12:47:01.951Z,7.35
2023-05-12T12:49:28.389Z,6.75
2023-05-12T12:51:55.416Z,6.80
2023-05-12T12:54:21.811Z,6.93
2023-05-12T12:56:48.262Z,7.57
2023-05-12T12:59:14.968Z,7.38
2023-05-12T13:01:41.367Z,16.05
2023-05-12T13:04:07.791Z,12.85
2023-05-12T13:06:34.587Z,15.10
2023-05-12T13:09:03.055Z,10.45
2023-05-12T13:11:29.562Z,10.70
2023-05-12T13:13:58.381Z,16.40
2023-05-12T13:16:24.749Z,21.60
2023-05-12T13:18:51.201Z,12.38
2023-05-12T13:21:18.660Z,18.98
2023-05-12T13:23:45.232Z,9.30
2023-05-12T13:26:14.458Z,16.88
2023-05-12T13:28:40.927Z,22.38
2023-05-12T13:31:07.509Z,11.88
2023-05-12T13:33:34.027Z,10.55
2023-05-12T13:36:00.517Z,14.50
2023-05-12T13:38:26.907Z,9.18
2023-05-12T13:40:53.457Z,11.98
2023-05-12T13:43:19.862Z,10.10
2023-05-12T13:45:49.181Z,17.10
2023-05-12T13:48:15.576Z,12.18
2023-05-12T13:50:42.158Z,16.88
2023-05-12T13:53:09.630Z,16.67
2023-05-12T13:55:40.655Z,22.50
2023-05-12T13:58:07.364Z,14.85
2023-05-12T14:00:33.794Z,15.57
2023-05-12T14:03:00.267Z,14.85
2023-05-12T14:05:27.366Z,12.80
2023-05-12T14:07:53.768Z,16.65
2023-05-12T14:10:20.112Z,10.55
2023-05-12T14:12:46.741Z,10.43
2023-05-12T14:17:45.643Z,10.20
2023-05-12T14:20:15.142Z,13.07
2023-05-12T14:22:42.061Z,14.27
2023-05-12T14:25:08.781Z,12.23
2023-05-12T14:27:35.259Z,12.30
2023-05-12T14:30:02.143Z,12.13
2023-05-12T14:32:28.729Z,12.73
2023-05-12T14:34:55.111Z,12.13
2023-05-12T14:37:21.635Z,11.07
2023-05-12T14:39:47.977Z,10.77
2023-05-12T14:42:14.406Z,10.50
2023-05-12T14:44:40.768Z,9.85
2023-05-12T14:47:09.117Z,9.45
2023-05-12T14:49:35.664Z,9.98
2023-05-12T14:52:02.386Z,11.07
2023-05-12T14:54:28.780Z,11.07
2023-05-12T14:56:55.213Z,11.43
2023-05-12T14:59:21.733Z,12.73
2023-05-12T15:01:48.124Z,11.43
2023-05-12T15:04:14.534Z,11.93
2023-05-12T15:06:40.884Z,12.40
2023-05-12T15:09:07.355Z,13.43
2023-05-12T15:11:34.198Z,13.48
2023-05-12T15:14:00.598Z,13.98
2023-05-12T15:16:28.152Z,13.73
2023-05-12T15:18:54.686Z,13.90
2023-05-12T15:21:21.144Z,13.50
2023-05-12T15:23:47.592Z,12.57
2023-05-12T15:26:31.446Z,14.65
2023-05-12T15:28:59.879Z,12.52
2023-05-12T15:31:28.895Z,14.10
2023-05-12T15:33:56.630Z,14.90
2023-05-12T15:36:23.232Z,14.18
2023-05-12T15:38:49.702Z,14.73
2023-05-12T15:41:16.109Z,13.23
2023-05-12T15:43:42.485Z,14.55
2023-05-12T15:46:10.849Z,13.98
2023-05-12T15:48:37.490Z,14.77
2023-05-12T15:51:04.261Z,16.38
2023-05-12T15:53:31.328Z,15.48
2023-05-12T15:56:01.954Z,15.18
2023-05-12T15:58:28.895Z,16.10
2023-05-12T16:00:56.096Z,14.85
2023-05-12T16:03:23.435Z,14.88
2023-05-12T16:05:50.576Z,15.20
2023-05-12T16:08:17.122Z,16.50
2023-05-12T16:10:45.868Z,17.92
2023-05-12T16:18:07.567Z,14.43
2023-05-12T16:20:41.883Z,13.13
2023-05-12T16:25:54.841Z,13.57
2023-05-12T16:28:24.664Z,13.15
2023-05-12T16:30:51.047Z,12.77
2023-05-12T16:33:17.478Z,9.75
2023-05-12T16:35:44.042Z,10.10
2023-05-12T16:38:15.936Z,9.52
2023-05-12T16:40:42.530Z,12.43
2023-05-12T16:43:08.986Z,16.17
2023-05-12T16:45:35.444Z,14.52
2023-05-12T16:48:02.026Z,8.70
2023-05-12T16:50:28.403Z,11.38
2023-05-12T16:52:54.931Z,11.52
2023-05-12T16:55:21.801Z,10.43
2023-05-12T16:57:48.461Z,9.98
2023-05-12T17:00:15.377Z,10.43
2023-05-12T17:02:42.559Z,9.43
2023-05-12T17:05:09.134Z,9.55
2023-05-12T17:07:35.591Z,8.70
2023-05-12T17:10:03.011Z,12.75
2023-05-12T17:12:29.499Z,11.27
2023-05-12T17:15:03.837Z,11.18
2023-05-12T17:17:34.030Z,10.68
2023-05-12T17:20:00.707Z,9.65
2023-05-12T17:22:28.039Z,10.60
2023-05-12T17:24:54.759Z,10.50
2023-05-12T17:27:21.434Z,9.38
2023-05-12T17:29:47.800Z,9.68
2023-05-12T17:32:14.188Z,8.63
2023-05-12T17:34:40.526Z,9.73
2023-05-12T17:37:07.459Z,10.55
2023-05-12T17:39:34.184Z,9.55
2023-05-12T17:42:00.492Z,10.73
2023-05-12T17:44:26.893Z,11.43
2023-05-12T17:46:53.463Z,11.15
2023-05-12T17:49:19.923Z,11.02
2023-05-12T17:51:46.862Z,10.95
2023-05-12T17:54:13.390Z,10.77
2023-05-12T17:56:39.694Z,10.45
2023-05-12T17:59:06.189Z,10.80
2023-05-12T18:01:32.865Z,10.60
2023-05-12T18:03:59.408Z,9.63
2023-05-12T18:06:26.042Z,8.75
2023-05-12T18:08:52.385Z,10.80
2023-05-12T18:11:18.741Z,10.55
2023-05-12T18:13:45.256Z,9.40
2023-05-12T18:16:24.997Z,8.65
2023-05-12T18:18:54.751Z,10.25
2023-05-12T18:21:21.154Z,11.20
2023-05-12T18:23:47.503Z,8.65
2023-05-12T18:26:13.865Z,10.43
2023-05-12T18:28:40.694Z,16.05
2023-05-12T18:31:15.932Z,23.85
2023-05-12T18:33:46.918Z,23.17
2023-05-12T18:36:13.513Z,27.20
2023-05-12T18:38:40.050Z,22.52
2023-05-12T18:41:07.211Z,25.38
2023-05-12T18:43:34.811Z,20.90
2023-05-12T18:46:01.602Z,23.38
2023-05-12T18:48:28.253Z,34.33
2023-05-12T18:50:56.084Z,21.63
2023-05-12T18:53:23.111Z,18.05
2023-05-12T18:55:50.178Z,14.45
2023-05-12T18:58:16.956Z,14.57
2023-05-12T19:00:44.116Z,15.05
2023-05-12T19:03:10.962Z,17.33
2023-05-12T19:05:37.797Z,18.63
2023-05-12T19:08:04.364Z,17.95
2023-05-12T19:10:30.812Z,18.10
2023-05-12T19:12:57.377Z,20.02
2023-05-12T19:15:23.936Z,15.05
2023-05-12T19:17:50.626Z,21.90
2023-05-12T19:20:17.346Z,16.67
2023-05-12T19:22:44.728Z,18.27
2023-05-12T19:25:11.868Z,21.25
2023-05-12T19:27:38.248Z,19.80
2023-05-12T19:30:05.409Z,21.75
2023-05-12T19:32:32.857Z,25.23
2023-05-12T19:35:00.914Z,18.85
2023-05-12T19:37:27.554Z,17.58
2023-05-12T19:39:54.071Z,20.13
2023-05-12T19:42:21.363Z,19.45
2023-05-12T19:44:47.744Z,24.40
2023-05-12T19:47:14.177Z,69.28
2023-05-12T19:49:40.546Z,20.92
2023-05-12T19:52:07.163Z,37.33
2023-05-12T19:54:33.582Z,22.55
2023-05-12T19:56:59.957Z,20.20
2023-05-12T19:59:26.792Z,43.10
2023-05-12T20:01:53.144Z,19.33
2023-05-12T20:04:19.601Z,35.25
2023-05-12T20:06:46.087Z,27.20
2023-05-12T20:09:12.473Z,22.67
2023-05-12T20:11:38.828Z,40.00
2023-05-12T20:14:05.244Z,54.75
2023-05-12T20:16:31.609Z,22.73
2023-05-12T20:19:02.895Z,75.15
2023-05-12T20:21:31.160Z,65.75
2023-05-12T20:23:57.531Z,50.70
2023-05-12T20:26:24.512Z,98.05
2023-05-12T20:28:53.641Z,39.78
2023-05-12T20:31:20.164Z,54.15
2023-05-12T20:33:46.566Z,43.35
2023-05-12T20:36:12.896Z,39.83
2023-05-12T20:38:39.673Z,63.13
2023-05-12T20:41:07.120Z,68.63
2023-05-12T20:43:33.765Z,65.45
2023-05-12T20:46:03.228Z,54.88
2023-05-12T20:48:29.922Z,46.25
2023-05-12T20:50:56.466Z,70.28
2023-05-12T20:53:23.266Z,60.78
2023-05-12T20:55:49.697Z,55.85
2023-05-12T20:58:16.155Z,66.50
2023-05-12T21:00:42.531Z,67.03
2023-05-12T21:03:14.160Z,34.40
2023-05-12T21:05:42.331Z,30.90
2023-05-12T21:08:08.769Z,35.20
2023-05-12T21:10:39.201Z,22.52
2023-05-12T21:13:05.722Z,23.13
2023-05-12T21:15:32.084Z,24.10
2023-05-12T21:17:58.792Z,23.98
2023-05-12T21:20:25.205Z,24.85
2023-05-12T21:22:51.570Z,37.25
2023-05-12T21:25:18.000Z,49.00
2023-05-12T21:27:45.712Z,31.95
2023-05-12T21:30:12.309Z,28.40
2023-05-12T21:32:39.646Z,34.88
2023-05-12T21:35:07.321Z,24.15
2023-05-12T21:37:34.222Z,29.38
2023-05-12T21:40:00.695Z,35.33
2023-05-12T21:42:27.134Z,29.58
2023-05-12T21:44:53.487Z,24.73
2023-05-12T21:47:20.143Z,36.53
2023-05-12T21:49:46.498Z,44.50
2023-05-12T21:52:13.596Z,67.50
2023-05-12T21:54:39.981Z,63.75
2023-05-12T21:57:06.382Z,77.20
2023-05-12T21:59:32.858Z,52.47
2023-05-12T22:01:59.531Z,39.92
2023-05-12T22:04:26.065Z,46.08
2023-05-12T22:06:52.408Z,40.22
2023-05-12T22:09:20.251Z,37.15
2023-05-12T22:11:46.652Z,35.03
2023-05-12T22:14:13.230Z,34.92
2023-05-12T22:16:42.156Z,33.17
2023-05-12T22:19:09.637Z,37.63
2023-05-12T22:21:36.286Z,46.00
2023-05-12T22:24:03.058Z,49.38
2023-05-12T22:26:29.803Z,44.20
2023-05-12T22:28:56.215Z,40.60
2023-05-12T22:31:22.657Z,37.50
2023-05-12T22:33:49.180Z,39.10
2023-05-12T22:36:15.810Z,37.35
2023-05-12T22:38:42.146Z,42.35
2023-05-12T22:41:08.486Z,40.97
2023-05-12T22:43:34.835Z,38.13
2023-05-12T22:46:01.182Z,38.67
2023-05-12T22:48:27.553Z,39.67
2023-05-12T22:50:54.517Z,37.70
2023-05-12T22:53:20.916Z,30.85
2023-05-12T22:55:47.303Z,37.30
2023-05-12T22:58:14.313Z,30.83
2023-05-12T23:00:40.768Z,31.15
2023-05-12T23:03:07.335Z,31.13
2023-05-12T23:05:33.818Z,37.88
2023-05-12T23:08:00.380Z,35.47
2023-05-12T23:10:26.769Z,33.30
2023-05-12T23:12:53.177Z,32.40
2023-05-12T23:15:19.684Z,33.35
2023-05-12T23:17:46.179Z,39.42
2023-05-12T23:20:12.800Z,31.80
2023-05-12T23:22:40.226Z,30.00
2023-05-12T23:25:07.289Z,31.75
2023-05-12T23:27:33.697Z,32.83
2023-05-12T23:30:00.180Z,33.42
2023-05-12T23:32:26.681Z,33.35
2023-05-12T23:34:53.128Z,33.05
2023-05-12T23:37:19.561Z,32.13
2023-05-12T23:39:46.136Z,33.55
2023-05-12T23:42:12.484Z,35.88
2023-05-12T23:44:38.895Z,33.33
2023-05-12T23:47:05.595Z,32.65
2023-05-12T23:49:32.214Z,35.03
2023-05-12T23:51:58.532Z,33.20
2023-05-12T23:54:24.926Z,30.45
2023-05-12T23:56:51.495Z,34.80
2023-05-12T23:59:17.963Z,30.08
